Time;durP1;ratioP1;P1;durP2;ratioP2;P2;SDS_P1;SDS_P2;PMS_P1;PMS_P2;Temp;Humidity;BMP_temperature;BMP_pressure;BME280_temperature;BME280_humidity;BME280_pressure;Samples;Min_cycle;Max_cycle;Signal;HPM_P1;HPM_P2
2022/11/13 00:00:51;;;;;;;14.50;9.45;;;;;;;5.45;nan;101656.63;5071593;28;20229;-83
2022/11/13 00:03:17;;;;;;;13.30;8.95;;;;;;;5.40;nan;101656.06;5049541;28;20100;-84
2022/11/13 00:05:42;;;;;;;10.35;7.38;;;;;;;5.43;nan;101653.25;5052603;28;20107;-85
2022/11/13 00:08:07;;;;;;;15.18;9.55;;;;;;;5.40;nan;101651.66;5056050;28;20033;-84
2022/11/13 00:10:33;;;;;;;12.25;8.60;;;;;;;5.33;nan;101653.78;5058474;28;20036;-84
2022/11/13 00:12:58;;;;;;;10.95;8.52;;;;;;;5.34;nan;101649.41;5055837;28;20028;-85
2022/11/13 00:15:23;;;;;;;11.77;8.73;;;;;;;5.32;nan;101646.88;5052382;28;20063;-84
2022/11/13 00:17:49;;;;;;;9.32;7.03;;;;;;;5.35;nan;101643.22;5073535;28;20090;-84
2022/11/13 00:20:14;;;;;;;12.88;9.07;;;;;;;5.38;nan;101636.94;5055761;28;20115;-84
2022/11/13 00:22:39;;;;;;;12.23;8.60;;;;;;;5.36;nan;101636.19;5053873;28;20660;-84
2022/11/13 00:25:05;;;;;;;13.52;9.68;;;;;;;5.39;nan;101636.03;5055828;28;20036;-83
2022/11/13 00:27:30;;;;;;;12.23;9.35;;;;;;;5.35;nan;101635.34;5068157;28;20525;-83
2022/11/13 00:29:56;;;;;;;16.52;9.52;;;;;;;5.32;nan;101633.75;5051608;28;20033;-84
2022/11/13 00:32:21;;;;;;;13.52;9.52;;;;;;;5.28;nan;101632.25;5043150;28;20211;-84
2022/11/13 00:34:46;;;;;;;14.55;9.88;;;;;;;5.26;nan;101626.25;5050336;28;20528;-84
2022/11/13 00:37:12;;;;;;;14.75;9.63;;;;;;;5.25;nan;101616.69;5050262;28;20040;-84
2022/11/13 00:39:37;;;;;;;13.00;8.93;;;;;;;5.26;nan;101625.41;5051882;28;20068;-85
2022/11/13 00:42:02;;;;;;;15.15;10.30;;;;;;;5.30;nan;101630.38;5053082;28;20033;-83
2022/11/13 00:44:28;;;;;;;17.30;10.57;;;;;;;5.32;nan;101630.28;5051054;28;20064;-84
2022/11/13 00:46:53;;;;;;;17.13;10.60;;;;;;;5.36;nan;101625.69;5052767;28;20036;-84
2022/11/13 00:49:18;;;;;;;14.73;9.38;;;;;;;5.36;nan;101633.56;5068811;28;20096;-84
2022/11/13 00:51:43;;;;;;;13.10;9.75;;;;;;;5.36;nan;101630.94;5052565;28;20067;-84
2022/11/13 00:54:09;;;;;;;12.73;8.13;;;;;;;5.42;nan;101628.81;5069244;28;20062;-84
2022/11/13 00:56:34;;;;;;;15.73;9.77;;;;;;;5.48;nan;101632.84;5051197;28;20036;-84
2022/11/13 00:58:59;;;;;;;12.82;8.15;;;;;;;5.50;nan;101628.34;5068994;28;20048;-84
2022/11/13 01:01:24;;;;;;;13.55;9.32;;;;;;;5.53;nan;101628.19;5053144;28;20729;-85
2022/11/13 01:03:51;;;;;;;12.93;9.07;;;;;;;5.53;nan;101634.28;5046349;28;20086;-83
2022/11/13 01:06:29;;;;;;;13.30;8.48;;;;;;;5.59;nan;101638.28;5048468;28;20040;-84
2022/11/13 01:08:58;;;;;;;17.48;10.55;;;;;;;5.60;nan;101641.75;5052195;28;20036;-84
2022/11/13 01:11:28;;;;;;;14.15;8.77;;;;;;;5.63;nan;101644.22;5052538;28;20120;-83
2022/11/13 01:13:53;;;;;;;13.40;8.00;;;;;;;5.70;nan;101640.28;5049225;28;20047;-84
2022/11/13 01:16:22;;;;;;;12.55;7.50;;;;;;;5.77;nan;101640.72;5067427;28;20033;-84
2022/11/13 01:18:47;;;;;;;12.00;7.88;;;;;;;5.81;nan;101637.81;5068057;28;20072;-84
2022/11/13 01:21:22;;;;;;;11.63;7.78;;;;;;;5.84;nan;101634.16;5068118;28;20028;-84
2022/11/13 01:23:47;;;;;;;15.73;8.85;;;;;;;5.83;nan;101629.88;5051938;28;20041;-83
2022/11/13 01:26:19;;;;;;;18.80;11.55;;;;;;;5.81;nan;101623.88;5053037;28;20498;-84
2022/11/13 01:29:33;;;;;;;20.27;11.48;;;;;;;5.77;nan;101619.72;5063171;28;20157;-84
2022/11/13 01:31:58;;;;;;;19.00;11.25;;;;;;;5.72;nan;101618.25;5043692;28;20690;-84
2022/11/13 01:34:23;;;;;;;17.25;10.70;;;;;;;5.74;nan;101613.75;5068657;28;20116;-84
2022/11/13 01:36:48;;;;;;;17.75;10.57;;;;;;;5.77;nan;101611.84;5054986;28;20513;-83
2022/11/13 01:39:14;;;;;;;15.55;9.63;;;;;;;5.78;nan;101606.53;5066431;28;20052;-84
2022/11/13 01:41:39;;;;;;;15.13;9.52;;;;;;;5.81;nan;101605.50;5049351;28;20408;-84
2022/11/13 01:44:09;;;;;;;14.15;9.35;;;;;;;5.81;nan;101605.50;5068653;28;20166;-84
2022/11/13 01:46:40;;;;;;;19.10;10.80;;;;;;;5.76;nan;101608.41;5048210;28;20029;-85
2022/11/13 01:49:09;;;;;;;20.13;10.93;;;;;;;5.69;nan;101597.44;5046028;28;20036;-83
2022/11/13 01:51:40;;;;;;;15.60;9.95;;;;;;;5.64;nan;101596.88;5067298;28;20116;-84
2022/11/13 01:54:10;;;;;;;16.98;10.25;;;;;;;5.58;nan;101602.50;5067344;28;20497;-84
2022/11/13 01:56:36;;;;;;;18.45;11.40;;;;;;;5.52;nan;101598.47;5049134;28;20051;-83
2022/11/13 01:59:09;;;;;;;21.58;11.15;;;;;;;5.44;nan;101599.88;5066759;28;20071;-83
2022/11/13 02:01:34;;;;;;;22.35;11.10;;;;;;;5.40;nan;101601.81;5067396;28;20033;-83
2022/11/13 02:04:00;;;;;;;17.80;10.30;;;;;;;5.38;nan;101595.81;5074618;28;20032;-83
2022/11/13 02:06:29;;;;;;;13.88;9.40;;;;;;;5.38;nan;101592.34;5046721;28;20280;-84
2022/11/13 02:08:55;;;;;;;13.90;9.20;;;;;;;5.40;nan;101590.50;5061078;28;20037;-83
2022/11/13 02:11:20;;;;;;;11.48;7.68;;;;;;;5.40;nan;101578.22;5069737;28;20043;-84
2022/11/13 02:13:46;;;;;;;18.27;10.63;;;;;;;5.40;nan;101580.00;5050466;28;20131;-83
2022/11/13 02:16:13;;;;;;;17.50;9.75;;;;;;;5.29;nan;101581.50;5064241;28;20493;-84
2022/11/13 02:18:40;;;;;;;13.10;8.68;;;;;;;5.27;nan;101577.28;5064888;28;20037;-84
2022/11/13 02:21:19;;;;;;;14.10;8.98;;;;;;;5.28;nan;101585.03;5049656;28;20040;-84
2022/11/13 02:23:47;;;;;;;12.50;8.55;;;;;;;5.26;nan;101579.03;5065560;28;20123;-83
2022/11/13 02:26:15;;;;;;;13.52;8.95;;;;;;;5.25;nan;101577.38;5052797;28;20090;-84
2022/11/13 02:28:40;;;;;;;14.73;8.52;;;;;;;5.26;nan;101572.94;5064889;28;20125;-84
2022/11/13 02:31:11;;;;;;;17.33;10.70;;;;;;;5.22;nan;101564.44;5071721;28;20123;-84
2022/11/13 02:33:36;;;;;;;17.13;10.57;;;;;;;5.17;nan;101557.75;5060824;28;20032;-84
2022/11/13 02:36:04;;;;;;;14.57;9.35;;;;;;;5.13;nan;101557.13;5051271;28;20071;-84
2022/11/13 02:38:31;;;;;;;14.10;9.18;;;;;;;5.14;nan;101552.72;5077967;28;20044;-83
2022/11/13 02:40:56;;;;;;;12.65;8.85;;;;;;;5.15;nan;101552.63;5061539;28;20033;-84
2022/11/13 02:43:21;;;;;;;15.30;9.65;;;;;;;5.15;nan;101551.75;5082969;28;20120;-84
2022/11/13 02:45:46;;;;;;;12.93;9.30;;;;;;;5.10;nan;101550.28;5061478;28;20117;-84
2022/11/13 02:48:12;;;;;;;15.65;9.95;;;;;;;5.14;nan;101553.56;5057477;28;20043;-83
2022/11/13 02:50:37;;;;;;;14.73;9.48;;;;;;;5.19;nan;101554.13;5058447;28;20453;-85
2022/11/13 02:53:03;;;;;;;12.05;8.00;;;;;;;5.24;nan;101557.34;5074770;28;20123;-84
2022/11/13 02:55:29;;;;;;;14.98;9.48;;;;;;;5.25;nan;101548.50;5055638;28;20059;-85
2022/11/13 02:57:54;;;;;;;14.23;9.38;;;;;;;5.25;nan;101539.81;5070732;28;20032;-84
2022/11/13 03:00:20;;;;;;;12.60;8.60;;;;;;;5.27;nan;101546.66;5063011;28;20035;-84
2022/11/13 03:02:45;;;;;;;13.68;9.18;;;;;;;5.28;nan;101534.38;5054124;28;20394;-85
2022/11/13 03:05:10;;;;;;;12.88;8.98;;;;;;;5.28;nan;101527.34;5072279;28;20036;-83
2022/11/13 03:07:36;;;;;;;17.35;9.35;;;;;;;5.30;nan;101532.50;5053384;28;20067;-84
2022/11/13 03:10:01;;;;;;;14.18;9.43;;;;;;;5.31;nan;101531.56;5055912;28;20509;-85
2022/11/13 03:12:26;;;;;;;11.23;8.10;;;;;;;5.21;nan;101526.03;5068745;28;20044;-83
2022/11/13 03:14:51;;;;;;;11.55;8.13;;;;;;;5.17;nan;101524.53;5057590;28;20663;-84
2022/11/13 03:17:17;;;;;;;9.32;7.22;;;;;;;5.19;nan;101524.44;5061136;28;20037;-85
2022/11/13 03:19:42;;;;;;;9.70;7.30;;;;;;;5.21;nan;101522.56;5053063;28;20405;-83
2022/11/13 03:22:07;;;;;;;12.65;8.70;;;;;;;5.22;nan;101526.88;5069922;28;20036;-85
2022/11/13 03:24:33;;;;;;;10.45;7.32;;;;;;;5.16;nan;101529.88;5052998;28;20041;-84
2022/11/13 03:26:58;;;;;;;12.43;8.15;;;;;;;5.17;nan;101518.44;5046355;28;20028;-84
2022/11/13 03:29:23;;;;;;;13.30;8.50;;;;;;;5.09;nan;101513.66;5065645;28;20059;-84
2022/11/13 03:31:48;;;;;;;11.30;8.98;;;;;;;5.03;nan;101511.41;5055975;28;20417;-84
2022/11/13 03:34:14;;;;;;;11.60;7.93;;;;;;;4.95;nan;101517.09;5067592;28;20059;-85
2022/11/13 03:36:39;;;;;;;10.98;7.50;;;;;;;4.94;nan;101514.59;5070234;28;20108;-86
2022/11/13 03:39:04;;;;;;;9.25;7.30;;;;;;;4.96;nan;101510.06;5082426;28;20040;-85
2022/11/13 03:41:30;;;;;;;9.38;7.53;;;;;;;4.95;nan;101511.84;5068782;28;20024;-84
2022/11/13 03:43:55;;;;;;;10.13;7.50;;;;;;;4.95;nan;101509.25;5055445;28;20072;-84
2022/11/13 03:46:20;;;;;;;10.00;7.28;;;;;;;4.92;nan;101509.44;5064600;28;20029;-84
2022/11/13 03:48:45;;;;;;;9.77;7.07;;;;;;;4.88;nan;101506.13;5058272;28;20511;-84
2022/11/13 03:51:11;;;;;;;10.13;7.65;;;;;;;4.91;nan;101510.38;5070999;28;20036;-86
2022/11/13 03:53:36;;;;;;;9.60;7.25;;;;;;;4.90;nan;101517.38;5053030;28;20044;-85
2022/11/13 03:56:01;;;;;;;10.30;7.22;;;;;;;4.91;nan;101507.75;5053147;28;20081;-84
2022/11/13 03:58:26;;;;;;;11.38;7.90;;;;;;;4.94;nan;101514.59;5051830;28;20052;-85
2022/11/13 04:00:53;;;;;;;9.25;6.75;;;;;;;4.93;nan;101507.66;5057325;28;20051;-86
2022/11/13 04:03:19;;;;;;;10.07;7.47;;;;;;;4.95;nan;101505.78;5052236;28;20086;-85
2022/11/13 04:05:46;;;;;;;11.75;8.38;;;;;;;4.99;nan;101502.06;5047095;28;20092;-85
2022/11/13 04:08:12;;;;;;;9.82;7.50;;;;;;;5.00;nan;101493.25;5053496;28;20033;-85
2022/11/13 04:10:37;;;;;;;9.95;6.75;;;;;;;5.01;nan;101495.78;5053734;28;20067;-84
2022/11/13 04:13:02;;;;;;;10.02;7.28;;;;;;;5.00;nan;101496.69;5052905;28;20029;-85
2022/11/13 04:15:28;;;;;;;9.55;7.38;;;;;;;5.03;nan;101493.91;5059035;28;20040;-85
2022/11/13 04:17:53;;;;;;;11.10;7.88;;;;;;;5.00;nan;101488.84;5076424;28;20044;-86
2022/11/13 04:20:18;;;;;;;11.85;7.25;;;;;;;5.03;nan;101499.16;5058796;28;20510;-84
2022/11/13 04:22:43;;;;;;;11.15;7.65;;;;;;;5.03;nan;101496.53;5055147;28;20070;-85
2022/11/13 04:25:09;;;;;;;10.35;7.32;;;;;;;5.02;nan;101491.38;5076086;28;20036;-86
2022/11/13 04:27:34;;;;;;;11.70;8.15;;;;;;;4.95;nan;101488.28;5055978;28;20028;-85
2022/11/13 04:30:00;;;;;;;16.83;8.93;;;;;;;4.94;nan;101483.13;5080337;28;20036;-85
2022/11/13 04:32:25;;;;;;;11.68;8.13;;;;;;;4.93;nan;101484.88;5065718;28;20059;-86
2022/11/13 04:34:50;;;;;;;14.98;8.40;;;;;;;4.95;nan;101480.41;5064903;28;20081;-84
2022/11/13 04:37:15;;;;;;;12.05;8.88;;;;;;;4.85;nan;101474.88;5055047;28;20390;-86
2022/11/13 04:39:41;;;;;;;18.77;9.48;;;;;;;4.86;nan;101471.34;5074793;28;20095;-84
2022/11/13 04:44:52;;;;;;;11.38;8.10;;;;;;;4.82;nan;101472.44;5064313;28;21936;-86
2022/11/13 04:47:17;;;;;;;13.40;9.15;;;;;;;4.85;nan;101474.88;5054291;28;20044;-85
2022/11/13 04:49:42;;;;;;;13.93;9.57;;;;;;;4.85;nan;101474.88;5054447;28;20464;-84
2022/11/13 04:52:07;;;;;;;13.57;9.35;;;;;;;4.82;nan;101467.22;5051077;28;20040;-85
2022/11/13 04:54:33;;;;;;;16.83;9.82;;;;;;;4.81;nan;101460.25;5057465;28;20029;-85
2022/11/13 04:56:58;;;;;;;15.93;9.93;;;;;;;4.85;nan;101460.94;5059963;28;20036;-85
2022/11/13 04:59:23;;;;;;;14.18;9.68;;;;;;;4.79;nan;101461.28;5057034;28;20540;-85
2022/11/13 05:01:49;;;;;;;12.70;9.00;;;;;;;4.71;nan;101453.06;5050451;28;20029;-85
2022/11/13 05:04:15;;;;;;;10.30;7.78;;;;;;;4.60;nan;101461.53;5070362;28;20150;-84
2022/11/13 05:06:40;;;;;;;11.95;7.57;;;;;;;4.59;nan;101458.06;5053663;28;20514;-85
2022/11/13 05:09:06;;;;;;;10.77;7.07;;;;;;;4.50;nan;101448.13;5058269;28;20036;-85
2022/11/13 05:11:31;;;;;;;7.95;6.20;;;;;;;4.32;nan;101446.59;5064220;28;20562;-85
2022/11/13 05:13:57;;;;;;;8.07;6.10;;;;;;;4.19;nan;101443.84;5055477;28;20081;-85
2022/11/13 05:16:22;;;;;;;7.38;5.32;;;;;;;4.02;nan;101432.56;5070970;28;20427;-85
2022/11/13 05:18:47;;;;;;;8.07;5.95;;;;;;;3.97;nan;101424.13;5058369;28;20401;-84
2022/11/13 05:21:13;;;;;;;8.43;5.85;;;;;;;3.91;nan;101424.50;5048367;28;20035;-83
2022/11/13 05:23:38;;;;;;;8.98;6.38;;;;;;;3.81;nan;101425.91;5070186;28;20513;-84
2022/11/13 05:26:06;;;;;;;7.50;5.50;;;;;;;3.72;nan;101423.81;5050766;28;20052;-83
2022/11/13 05:28:32;;;;;;;7.05;5.57;;;;;;;3.71;nan;101422.13;5066545;28;20064;-83
2022/11/13 05:31:10;;;;;;;7.10;5.38;;;;;;;3.75;nan;101423.66;5071709;28;20127;-84
2022/11/13 05:33:37;;;;;;;7.88;5.90;;;;;;;3.77;nan;101421.81;5053903;28;20029;-85
2022/11/13 05:36:08;;;;;;;10.88;7.63;;;;;;;3.79;nan;101426.03;5055235;28;20071;-84
2022/11/13 05:38:33;;;;;;;;;;;;;;;3.76;nan;101426.16;5075818;28;20041;-84
2022/11/13 05:41:04;;;;;;;9.40;6.70;;;;;;;3.75;nan;101428.88;5072597;28;19923;-84
2022/11/13 05:43:30;;;;;;;;;;;;;;;3.68;nan;101424.94;5049673;28;20040;-84
2022/11/13 05:46:18;;;;;;;8.75;6.50;;;;;;;3.67;nan;101420.59;5048313;28;20012;-83
2022/11/13 05:48:45;;;;;;;8.88;6.90;;;;;;;3.65;nan;101422.47;5047226;28;20040;-84
2022/11/13 05:51:14;;;;;;;10.43;6.30;;;;;;;3.63;nan;101426.97;5048163;28;20037;-83
2022/11/13 05:53:40;;;;;;;9.48;6.68;;;;;;;3.64;nan;101415.56;5046882;28;20264;-83
2022/11/13 05:56:09;;;;;;;10.07;6.75;;;;;;;3.68;nan;101407.47;5042829;28;20117;-83
2022/11/13 05:58:34;;;;;;;;;;;;;;;3.71;nan;101409.06;5067863;28;20125;-85
2022/11/13 06:01:12;;;;;;;12.73;8.10;;;;;;;3.72;nan;101414.22;5044340;28;19917;-83
2022/11/13 06:03:38;;;;;;;43.25;10.77;;;;;;;3.76;nan;101407.03;5053144;28;20040;-84
2022/11/13 06:06:06;;;;;;;22.02;9.63;;;;;;;3.82;nan;101404.06;5038595;28;20445;-84
2022/11/13 06:08:31;;;;;;;13.30;9.13;;;;;;;3.79;nan;101396.38;5049884;28;20037;-84
2022/11/13 06:11:19;;;;;;;12.45;7.97;;;;;;;3.83;nan;101396.13;5051295;28;20052;-84
2022/11/13 06:13:46;;;;;;;21.38;8.20;;;;;;;3.85;nan;101384.75;5062500;28;20029;-85
2022/11/13 06:16:23;;;;;;;11.38;7.95;;;;;;;3.85;nan;101382.97;5050841;28;20040;-84
2022/11/13 06:18:49;;;;;;;17.13;9.43;;;;;;;3.86;nan;101383.78;5051441;28;20041;-85
2022/11/13 06:21:17;;;;;;;21.98;8.95;;;;;;;3.87;nan;101375.88;5052651;28;20063;-85
2022/11/13 06:23:42;;;;;;;20.30;8.55;;;;;;;3.87;nan;101380.25;5051237;28;20144;-84
2022/11/13 06:26:10;;;;;;;14.43;6.57;;;;;;;3.99;nan;101385.63;5049608;28;20999;-84
2022/11/13 06:28:36;;;;;;;6.45;5.28;;;;;;;3.98;nan;101383.09;5070564;28;20486;-84
2022/11/13 06:31:08;;;;;;;32.67;8.80;;;;;;;3.95;nan;101378.88;5069356;28;20268;-84
2022/11/13 06:33:34;;;;;;;12.27;7.10;;;;;;;3.90;nan;101377.47;5061077;28;20490;-84
2022/11/13 06:36:09;;;;;;;12.93;8.00;;;;;;;3.85;nan;101369.88;5044641;28;20043;-84
2022/11/13 06:38:36;;;;;;;10.07;6.43;;;;;;;3.88;nan;101377.53;5044605;28;20032;-83
2022/11/13 06:41:02;;;;;;;;;;;;;;;3.85;nan;101371.66;5044234;28;20045;-84
2022/11/13 06:43:28;;;;;;;24.20;7.57;;;;;;;3.82;nan;101376.13;5050901;28;19977;-85
2022/11/13 06:45:54;;;;;;;25.20;8.27;;;;;;;3.75;nan;101374.78;5069753;28;20040;-84
2022/11/13 06:48:20;;;;;;;10.68;7.25;;;;;;;3.78;nan;101373.78;5069808;28;20064;-84
2022/11/13 06:50:45;;;;;;;13.90;7.97;;;;;;;3.81;nan;101370.97;5050429;28;20037;-85
2022/11/13 06:53:10;;;;;;;11.55;6.95;;;;;;;3.86;nan;101371.56;5053771;28;20033;-85
2022/11/13 06:55:49;;;;;;;8.43;6.70;;;;;;;3.87;nan;101370.63;5068065;28;20105;-83
2022/11/13 06:58:15;;;;;;;9.07;7.22;;;;;;;3.90;nan;101367.00;5044309;28;20411;-85
2022/11/13 07:00:41;;;;;;;7.43;5.72;;;;;;;3.95;nan;101365.78;5071048;28;20075;-85
2022/11/13 07:03:15;;;;;;;13.73;8.18;;;;;;;3.93;nan;101367.69;5054089;28;20028;-85
2022/11/13 07:05:41;;;;;;;10.68;6.45;;;;;;;3.98;nan;101357.78;5045253;28;20032;-84
2022/11/13 07:08:06;;;;;;;6.80;5.38;;;;;;;4.04;nan;101357.41;5069712;28;20036;-83
2022/11/13 07:10:31;;;;;;;8.95;5.53;;;;;;;4.13;nan;101350.81;5044138;28;20036;-84
2022/11/13 07:13:00;;;;;;;9.00;6.95;;;;;;;4.16;nan;101350.63;5050991;28;20502;-85
2022/11/13 07:15:26;;;;;;;10.48;7.55;;;;;;;4.16;nan;101358.47;5054382;28;20035;-83
2022/11/13 07:17:51;;;;;;;9.38;6.07;;;;;;;4.18;nan;101359.22;5052933;28;20423;-83
2022/11/13 07:20:17;;;;;;;;;;;;;;;4.19;nan;101357.44;5053388;28;20548;-84
2022/11/13 07:22:42;;;;;;;10.35;6.18;;;;;;;4.19;nan;101357.44;5054196;28;19916;-84
2022/11/13 07:25:08;;;;;;;9.60;6.28;;;;;;;4.19;nan;101365.31;5054613;28;20044;-85
2022/11/13 07:27:33;;;;;;;10.13;7.70;;;;;;;4.13;nan;101357.81;5051661;28;20043;-83
2022/11/13 07:29:58;;;;;;;15.07;7.97;;;;;;;4.15;nan;101350.72;5049736;28;20112;-85
2022/11/13 07:32:23;;;;;;;9.95;7.50;;;;;;;4.18;nan;101358.41;5046693;28;20032;-84
2022/11/13 07:34:49;;;;;;;11.93;8.23;;;;;;;4.28;nan;101356.06;5050036;28;20037;-85
2022/11/13 07:37:14;;;;;;;10.45;7.22;;;;;;;4.35;nan;101360.00;5044269;28;20032;-83
2022/11/13 07:39:39;;;;;;;10.13;6.93;;;;;;;4.33;nan;101359.25;5072168;28;20032;-84
2022/11/13 07:42:04;;;;;;;11.48;6.63;;;;;;;4.31;nan;101359.34;5053504;28;20030;-84
2022/11/13 07:44:30;;;;;;;8.55;6.43;;;;;;;4.32;nan;101361.03;5054126;28;20032;-83
2022/11/13 07:46:55;;;;;;;7.68;5.93;;;;;;;4.36;nan;101352.09;5070979;28;20040;-84
2022/11/13 07:49:20;;;;;;;7.97;6.20;;;;;;;4.42;nan;101348.25;5046475;28;20444;-84
2022/11/13 07:51:46;;;;;;;10.05;6.35;;;;;;;4.51;nan;101357.34;5067732;28;20552;-84
2022/11/13 07:54:11;;;;;;;10.98;8.23;;;;;;;4.58;nan;101354.25;5052318;28;20096;-83
2022/11/13 07:56:36;;;;;;;12.70;8.40;;;;;;;4.65;nan;101347.69;5055994;28;20032;-83
2022/11/13 07:59:01;;;;;;;10.82;8.00;;;;;;;4.74;nan;101350.69;5053912;28;20580;-86
2022/11/13 08:01:27;;;;;;;10.43;7.38;;;;;;;4.82;nan;101348.44;5059512;28;20041;-83
2022/11/13 08:03:52;;;;;;;10.00;7.20;;;;;;;4.92;nan;101343.47;5045076;28;20044;-85
2022/11/13 08:06:17;;;;;;;12.18;8.23;;;;;;;4.99;nan;101336.91;5053038;28;20068;-84
2022/11/13 08:08:46;;;;;;;16.88;10.68;;;;;;;5.16;nan;101341.94;5071629;28;20036;-84
2022/11/13 08:11:11;;;;;;;12.88;8.88;;;;;;;5.09;nan;101338.03;5062794;28;20556;-85
2022/11/13 08:13:37;;;;;;;10.10;7.15;;;;;;;5.12;nan;101340.44;5068440;28;20275;-85
2022/11/13 08:16:03;;;;;;;8.23;6.53;;;;;;;5.10;nan;101337.06;5051829;28;20062;-84
2022/11/13 08:18:30;;;;;;;8.55;6.50;;;;;;;5.04;nan;101335.69;5067897;28;20124;-86
2022/11/13 08:20:55;;;;;;;7.35;6.00;;;;;;;5.04;nan;101335.69;5062291;28;20044;-84
2022/11/13 08:23:21;;;;;;;11.27;7.30;;;;;;;5.09;nan;101335.41;5059812;28;20052;-85
2022/11/13 08:25:46;;;;;;;11.20;7.60;;;;;;;5.03;nan;101336.63;5044991;28;20525;-85
2022/11/13 08:28:12;;;;;;;8.13;6.78;;;;;;;5.04;nan;101337.47;5062290;28;20032;-85
2022/11/13 08:30:38;;;;;;;9.50;7.28;;;;;;;5.07;nan;101332.88;5048099;28;20446;-83
2022/11/13 08:33:03;;;;;;;10.25;7.20;;;;;;;5.17;nan;101342.78;5048691;28;20044;-85
2022/11/13 08:35:29;;;;;;;10.55;7.00;;;;;;;5.28;nan;101340.31;5047928;28;20032;-84
2022/11/13 08:38:00;;;;;;;7.57;6.05;;;;;;;5.39;nan;101330.00;5056286;28;20039;-85
2022/11/13 08:40:25;;;;;;;11.77;7.70;;;;;;;5.22;nan;101328.44;5050239;28;20047;-84
2022/11/13 08:42:50;;;;;;;8.75;6.72;;;;;;;5.20;nan;101330.31;5070889;28;20104;-84
2022/11/13 08:45:16;;;;;;;24.98;7.47;;;;;;;5.23;nan;101327.50;5053763;28;20029;-87
2022/11/13 08:47:41;;;;;;;8.20;6.53;;;;;;;5.30;nan;101333.19;5056632;28;20143;-86
2022/11/13 08:50:07;;;;;;;11.82;6.85;;;;;;;5.47;nan;101329.50;5070998;28;20067;-86
2022/11/13 08:52:32;;;;;;;11.32;8.23;;;;;;;5.56;nan;101321.03;5051370;28;20565;-84
2022/11/13 08:54:57;;;;;;;13.15;8.38;;;;;;;5.64;nan;101324.00;5064588;28;20032;-84
2022/11/13 08:57:23;;;;;;;15.38;8.55;;;;;;;5.65;nan;101323.06;5050420;28;20505;-84
2022/11/13 08:59:48;;;;;;;11.45;7.68;;;;;;;5.53;nan;101324.69;5067388;28;20044;-84
2022/11/13 09:02:14;;;;;;;8.20;6.70;;;;;;;5.56;nan;101323.66;5042947;28;20126;-84
2022/11/13 09:04:41;;;;;;;8.82;7.00;;;;;;;5.68;nan;101317.59;5069638;28;20098;-84
2022/11/13 09:07:06;;;;;;;9.68;6.10;;;;;;;5.75;nan;101310.19;5050010;28;20082;-84
2022/11/13 09:09:33;;;;;;;9.27;5.60;;;;;;;5.90;nan;101311.78;5052609;28;20032;-84
2022/11/13 09:11:58;;;;;;;10.80;6.43;;;;;;;5.83;nan;101299.16;5064887;28;20302;-84
2022/11/13 09:14:24;;;;;;;11.88;6.28;;;;;;;5.75;nan;101305.75;5046500;28;20029;-84
2022/11/13 09:16:49;;;;;;;14.07;6.78;;;;;;;5.75;nan;101303.13;5050415;28;20546;-83
2022/11/13 09:19:14;;;;;;;9.23;6.53;;;;;;;5.78;nan;101290.75;5050544;28;20040;-83
2022/11/13 09:21:39;;;;;;;14.23;6.82;;;;;;;5.81;nan;101290.53;5049778;28;20549;-84
2022/11/13 09:24:05;;;;;;;7.78;6.18;;;;;;;5.87;nan;101292.78;5048824;28;20040;-83
2022/11/13 09:26:31;;;;;;;6.65;5.60;;;;;;;6.04;nan;101292.50;5049748;28;20071;-84
2022/11/13 09:28:56;;;;;;;16.52;8.27;;;;;;;6.18;nan;101288.94;5050095;28;20448;-84
2022/11/13 09:31:21;;;;;;;9.77;7.63;;;;;;;6.32;nan;101282.75;5048206;28;20450;-84
2022/11/13 09:33:46;;;;;;;12.77;8.77;;;;;;;6.48;nan;101283.34;5050758;28;20048;-84
2022/11/13 09:36:14;;;;;;;10.85;7.63;;;;;;;6.51;nan;101284.94;5050739;28;20028;-84
2022/11/13 09:38:40;;;;;;;20.83;7.90;;;;;;;6.49;nan;101281.59;5045541;28;20037;-85
2022/11/13 09:41:14;;;;;;;7.50;5.63;;;;;;;6.65;nan;101276.09;5065369;28;20399;-84
2022/11/13 09:43:46;;;;;;;8.32;6.60;;;;;;;6.73;nan;101265.88;5067661;28;20419;-84
2022/11/13 09:46:31;;;;;;;12.25;9.00;;;;;;;6.77;nan;101262.09;5065524;28;20036;-85
2022/11/13 09:49:03;;;;;;;10.05;7.85;;;;;;;6.88;nan;101262.16;5051412;28;20032;-84
2022/11/13 09:51:31;;;;;;;11.38;6.90;;;;;;;6.86;nan;101247.44;5066481;28;20061;-83
2022/11/13 09:54:01;;;;;;;8.52;6.70;;;;;;;6.90;nan;101238.38;5044727;28;20044;-83
2022/11/13 09:56:43;;;;;;;7.38;6.10;;;;;;;7.10;nan;101239.56;5048867;28;20037;-84
2022/11/13 09:59:15;;;;;;;18.10;8.98;;;;;;;7.18;nan;101240.69;5045326;28;20101;-83
2022/11/13 10:01:56;;;;;;;8.98;6.97;;;;;;;7.22;nan;101230.78;5047353;28;20120;-85
2022/11/13 10:04:31;;;;;;;;;;;;;;;7.04;nan;101224.25;5044340;28;20389;-85
2022/11/13 10:07:17;;;;;;;8.80;6.95;;;;;;;7.06;nan;101211.84;5046758;28;19956;-83
2022/11/13 10:10:17;;;;;;;9.38;7.00;;;;;;;7.20;nan;101219.56;5037869;28;20041;-84
2022/11/13 10:12:45;;;;;;;14.73;7.35;;;;;;;7.30;nan;101199.50;5042138;28;20058;-85
2022/11/13 10:15:10;;;;;;;8.27;6.78;;;;;;;7.37;nan;101205.16;5067613;28;20131;-84
2022/11/13 10:17:44;;;;;;;8.13;6.80;;;;;;;7.40;nan;101183.88;5067250;28;20180;-83
2022/11/13 10:20:34;;;;;;;10.98;7.05;;;;;;;7.51;nan;101190.94;5032961;28;20033;-84
2022/11/13 10:23:05;;;;;;;11.98;7.53;;;;;;;7.64;nan;101186.44;5044084;28;20037;-84
2022/11/13 10:25:35;;;;;;;9.73;6.38;;;;;;;7.82;nan;101181.56;5051636;28;20476;-84
2022/11/13 10:28:08;;;;;;;8.23;6.50;;;;;;;7.68;nan;101190.53;5052705;28;20036;-84
2022/11/13 10:30:33;;;;;;;5.63;5.05;;;;;;;7.76;nan;101185.50;5052008;28;20417;-83
2022/11/13 10:33:13;;;;;;;11.07;6.80;;;;;;;7.93;nan;101193.91;5069521;28;20408;-84
2022/11/13 10:35:40;;;;;;;11.30;6.03;;;;;;;7.98;nan;101195.22;5050703;28;20344;-84
2022/11/13 10:38:17;;;;;;;7.43;6.07;;;;;;;8.04;nan;101188.66;5063944;28;20033;-83
2022/11/13 10:40:42;;;;;;;10.35;6.35;;;;;;;8.01;nan;101188.91;5042690;28;20116;-84
2022/11/13 10:43:21;;;;;;;6.93;5.30;;;;;;;8.11;nan;101191.66;5040253;28;20055;-86
2022/11/13 10:46:17;;;;;;;8.00;5.50;;;;;;;7.94;nan;101182.44;5055492;28;20086;-83
2022/11/13 10:48:42;;;;;;;7.88;6.55;;;;;;;7.86;nan;101178.59;5053622;28;20036;-84
2022/11/13 10:51:27;;;;;;;7.78;6.15;;;;;;;7.84;nan;101177.00;5053041;28;20132;-85
2022/11/13 10:53:53;;;;;;;;;;;;;;;7.87;nan;101156.56;5053926;28;20535;-84
2022/11/13 10:56:34;;;;;;;7.63;6.55;;;;;;;7.75;nan;101151.41;5049931;28;19924;-84
2022/11/13 10:59:04;;;;;;;8.48;6.32;;;;;;;7.87;nan;101155.72;5053737;28;20104;-84
2022/11/13 11:01:29;;;;;;;6.55;5.32;;;;;;;7.94;nan;101148.19;5052254;28;20042;-87
2022/11/13 11:03:54;;;;;;;7.60;6.20;;;;;;;7.95;nan;101150.69;5050171;28;20029;-85
2022/11/13 11:06:32;;;;;;;14.05;7.28;;;;;;;7.87;nan;101142.56;5069510;28;20039;-84
2022/11/13 11:09:12;;;;;;;7.70;6.30;;;;;;;7.94;nan;101135.03;5070741;28;20040;-83
2022/11/13 11:14:40;;;;;;;9.25;6.97;;;;;;;7.74;nan;101131.28;5060454;28;20055;-85
2022/11/13 11:17:10;;;;;;;6.75;5.80;;;;;;;7.81;nan;101130.69;5068087;28;20040;-84
2022/11/13 11:19:38;;;;;;;11.77;6.32;;;;;;;8.09;nan;101144.34;5053902;28;20389;-84
2022/11/13 11:22:17;;;;;;;10.23;6.25;;;;;;;8.16;nan;101135.00;5062561;28;20048;-84
2022/11/13 11:25:01;;;;;;;6.97;5.65;;;;;;;8.29;nan;101127.81;5063808;28;20032;-85
2022/11/13 11:27:36;;;;;;;7.50;6.15;;;;;;;8.32;nan;101121.47;5062397;28;20465;-84
2022/11/13 11:30:04;;;;;;;;;;;;;;;8.37;nan;101134.28;5046882;28;20071;-86
2022/11/13 11:32:40;;;;;;;6.35;5.53;;;;;;;8.41;nan;101122.53;5049004;28;19920;-84
2022/11/13 11:35:37;;;;;;;8.65;7.03;;;;;;;8.36;nan;101124.66;5051364;28;20044;-84
2022/11/13 11:38:12;;;;;;;7.85;6.70;;;;;;;8.35;nan;101123.84;5046217;28;20513;-84
2022/11/13 11:40:41;;;;;;;9.77;7.70;;;;;;;8.29;nan;101111.13;5048089;28;20047;-86
2022/11/13 11:43:37;;;;;;;9.80;7.65;;;;;;;8.32;nan;101118.81;5049247;28;20044;-84
2022/11/13 11:46:02;;;;;;;8.05;6.97;;;;;;;8.44;nan;101103.84;5049022;28;20056;-84
2022/11/13 11:48:32;;;;;;;10.65;7.63;;;;;;;8.47;nan;101096.53;5069524;28;20474;-85
2022/11/13 11:51:31;;;;;;;8.98;7.70;;;;;;;8.49;nan;101101.69;5047009;28;20167;-85
2022/11/13 11:54:18;;;;;;;9.85;7.60;;;;;;;8.59;nan;101110.50;5032701;28;20063;-84
2022/11/13 11:56:54;;;;;;;9.57;7.70;;;;;;;8.66;nan;101101.13;5051532;28;20083;-85